Saint Marys City, Maryland
Current Conditions -  °F | °C
As of 11:53 PM on Wednesday 22 Oct 2014 (Local Time) from KNUI Reporting Station
Overcast Overcast  
Wind Chill: 54°   Ceiling: 3600
Heat Index: 54°   Visibility: 10mi
Dew Point: 45°   Wind: 9mph
Humidity: 72%   Direction: 310°NW
Pressure: 29.88"   Gusts: NA
Location:  38.19°N, 76.43°W
Report Text: KNUI 230353Z AUTO 31008KT 280V350 10SM OVC036 12/07 A2988 RMK AO2 RAB28E38 SLP116 P0000 T01220072
Loading
Personal Weather Stations






























Interactive Weather Map New forecast layout! Learn more

10-Day Weather Forecast

Advertisements
Track Severe Weather on mobile